createdAt,value
2018-11-28T00:00:37.467Z,40.10
2018-11-28T00:03:07.827Z,39.90
2018-11-28T00:05:36.262Z,36.77
2018-11-28T00:08:04.750Z,41.70
2018-11-28T00:10:33.154Z,39.30
2018-11-28T00:13:01.527Z,40.90
2018-11-28T00:15:29.948Z,39.87
2018-11-28T00:17:58.674Z,38.90
2018-11-28T00:20:27.071Z,39.37
2018-11-28T00:22:55.461Z,37.80
2018-11-28T00:25:23.855Z,41.87
2018-11-28T00:27:52.250Z,39.00
2018-11-28T00:30:23.075Z,38.70
2018-11-28T00:32:51.486Z,40.13
2018-11-28T00:35:21.934Z,42.37
2018-11-28T00:37:50.324Z,40.27
2018-11-28T00:40:21.126Z,38.97
2018-11-28T00:42:49.582Z,40.93
2018-11-28T00:45:19.720Z,45.00
2018-11-28T00:47:48.174Z,39.50
2018-11-28T00:50:18.671Z,42.67
2018-11-28T00:52:47.142Z,43.57
2018-11-28T00:55:16.394Z,40.93
2018-11-28T00:57:45.042Z,42.27
2018-11-28T01:00:14.908Z,46.47
2018-11-28T01:02:43.555Z,43.53
2018-11-28T01:05:12.554Z,41.87
2018-11-28T01:07:42.275Z,46.57
2018-11-28T01:10:14.458Z,43.30
2018-11-28T01:12:42.842Z,42.10
2018-11-28T01:15:12.899Z,40.27
2018-11-28T01:17:41.291Z,43.40
2018-11-28T01:20:12.939Z,43.83
2018-11-28T01:22:41.398Z,40.40
2018-11-28T01:25:17.967Z,41.53
2018-11-28T01:27:46.388Z,41.53
2018-11-28T01:30:18.004Z,41.37
2018-11-28T01:32:46.732Z,43.93
2018-11-28T01:35:17.216Z,41.57
2018-11-28T01:37:45.814Z,43.63
2018-11-28T01:40:21.591Z,41.47
2018-11-28T01:42:50.001Z,45.17
2018-11-28T01:45:19.382Z,46.23
2018-11-28T01:47:47.841Z,42.50
2018-11-28T01:50:17.344Z,39.37
2018-11-28T01:52:45.798Z,40.07
2018-11-28T01:55:17.113Z,43.70
2018-11-28T01:57:45.514Z,44.27
2018-11-28T02:00:18.115Z,42.60
2018-11-28T02:02:47.181Z,42.40
2018-11-28T02:05:15.555Z,39.50
2018-11-28T02:07:43.959Z,40.27
2018-11-28T02:10:13.574Z,41.00
2018-11-28T02:12:41.986Z,43.87
2018-11-28T02:15:12.425Z,43.20
2018-11-28T02:17:40.830Z,42.07
2018-11-28T02:20:10.781Z,41.93
2018-11-28T02:22:39.284Z,40.83
2018-11-28T02:25:13.727Z,39.07
2018-11-28T02:27:42.188Z,41.13
2018-11-28T02:30:15.333Z,39.67
2018-11-28T02:32:44.096Z,38.23
2018-11-28T02:35:13.482Z,40.37
2018-11-28T02:37:42.025Z,36.80
2018-11-28T02:40:11.495Z,40.37
2018-11-28T02:42:39.883Z,37.40
2018-11-28T02:45:12.354Z,39.63
2018-11-28T02:47:40.750Z,39.83
2018-11-28T02:50:09.362Z,38.10
2018-11-28T02:52:37.767Z,36.50
2018-11-28T02:55:08.351Z,38.50
2018-11-28T02:57:36.743Z,40.17
2018-11-28T03:00:22.271Z,39.37
2018-11-28T03:02:50.832Z,39.83
2018-11-28T03:05:19.495Z,36.80
2018-11-28T03:07:47.963Z,36.90
2018-11-28T03:10:18.440Z,33.50
2018-11-28T03:12:49.279Z,39.80
2018-11-28T03:15:22.784Z,40.67
2018-11-28T03:17:51.324Z,33.73
2018-11-28T03:20:19.733Z,37.10
2018-11-28T03:22:48.107Z,35.17
2018-11-28T03:25:16.498Z,33.03
2018-11-28T03:27:44.881Z,34.77
2018-11-28T03:30:14.520Z,34.80
2018-11-28T03:32:42.927Z,32.37
2018-11-28T03:35:13.583Z,35.57
2018-11-28T03:37:42.068Z,34.60
2018-11-28T03:40:10.555Z,36.13
2018-11-28T03:42:38.932Z,33.10
2018-11-28T03:45:11.651Z,33.50
2018-11-28T03:47:40.069Z,37.13
2018-11-28T03:50:09.895Z,33.37
2018-11-28T03:52:39.015Z,33.80
2018-11-28T03:55:10.855Z,34.70
2018-11-28T03:57:39.250Z,35.47
2018-11-28T04:00:13.083Z,36.00
2018-11-28T04:02:41.494Z,33.70
2018-11-28T04:05:10.227Z,38.57
2018-11-28T04:07:38.935Z,34.33
2018-11-28T04:10:09.621Z,32.90
2018-11-28T04:12:38.163Z,35.67
2018-11-28T04:15:09.835Z,34.17
2018-11-28T04:17:38.217Z,36.50
2018-11-28T04:20:09.199Z,35.43
2018-11-28T04:22:37.609Z,36.90
2018-11-28T04:25:07.082Z,35.40
2018-11-28T04:27:35.487Z,34.57
2018-11-28T04:30:04.197Z,35.07
2018-11-28T04:32:32.639Z,34.63
2018-11-28T04:35:01.042Z,33.60
2018-11-28T04:37:29.431Z,35.67
2018-11-28T04:39:57.826Z,34.70
2018-11-28T04:42:26.203Z,34.87
2018-11-28T04:44:54.579Z,34.47
2018-11-28T04:47:22.948Z,40.63
2018-11-28T04:49:51.340Z,36.33
2018-11-28T04:52:19.728Z,36.80
2018-11-28T04:54:48.115Z,34.80
2018-11-28T04:57:16.557Z,37.83
2018-11-28T04:59:44.932Z,34.83
2018-11-28T05:02:13.303Z,37.80
2018-11-28T05:04:41.695Z,38.17
2018-11-28T05:07:26.828Z,37.00
2018-11-28T05:09:55.320Z,38.37
2018-11-28T05:12:23.707Z,36.77
2018-11-28T05:14:52.268Z,42.50
2018-11-28T05:17:20.697Z,38.77
2018-11-28T05:19:49.233Z,43.83
2018-11-28T05:22:17.600Z,59.90
2018-11-28T05:24:46.391Z,43.40
2018-11-28T05:27:14.763Z,46.83
2018-11-28T05:29:43.151Z,43.00
2018-11-28T05:32:11.555Z,44.30
2018-11-28T05:34:39.956Z,46.53
2018-11-28T05:37:08.361Z,48.07
2018-11-28T05:39:36.747Z,48.73
2018-11-28T05:42:05.649Z,46.23
2018-11-28T05:44:34.044Z,47.13
2018-11-28T05:47:02.438Z,47.20
2018-11-28T05:49:30.813Z,45.37
2018-11-28T05:51:59.186Z,49.53
2018-11-28T05:54:27.797Z,46.17
2018-11-28T05:56:56.210Z,51.97
2018-11-28T05:59:27.365Z,47.03
2018-11-28T06:01:53.066Z,47.90
2018-11-28T06:04:21.450Z,47.57
2018-11-28T06:06:50.012Z,48.37
2018-11-28T06:09:18.387Z,52.17
2018-11-28T06:11:46.780Z,47.90
2018-11-28T06:14:15.171Z,47.17
2018-11-28T06:16:43.584Z,50.23
2018-11-28T06:19:11.998Z,48.33
2018-11-28T06:21:40.387Z,45.77
2018-11-28T06:24:08.785Z,47.33
2018-11-28T06:26:37.190Z,42.13
2018-11-28T06:29:06.162Z,47.07
2018-11-28T06:31:34.567Z,41.97
2018-11-28T06:34:02.925Z,51.80
2018-11-28T06:36:31.334Z,46.70
2018-11-28T06:38:59.713Z,44.47
2018-11-28T06:41:28.112Z,43.73
2018-11-28T06:43:56.511Z,41.87
2018-11-28T06:46:24.912Z,43.17
2018-11-28T06:48:53.682Z,47.10
2018-11-28T06:51:22.062Z,43.13
2018-11-28T06:53:50.471Z,43.60
2018-11-28T06:56:18.914Z,43.07
2018-11-28T06:58:47.318Z,43.97
2018-11-28T07:01:15.721Z,45.90
2018-11-28T07:03:44.082Z,41.90
2018-11-28T07:06:12.449Z,44.87
2018-11-28T07:08:40.979Z,41.60
2018-11-28T07:11:09.355Z,42.87
2018-11-28T07:13:37.743Z,43.20
2018-11-28T07:16:06.196Z,41.90
2018-11-28T07:18:45.912Z,43.33
2018-11-28T07:21:14.306Z,46.40
2018-11-28T07:23:42.695Z,44.43
2018-11-28T07:26:11.067Z,50.07
2018-11-28T07:28:39.467Z,45.13
2018-11-28T07:31:07.903Z,44.13
2018-11-28T07:33:36.318Z,43.87
2018-11-28T07:36:04.755Z,46.30
2018-11-28T07:38:33.179Z,50.17
2018-11-28T07:41:01.570Z,44.40
2018-11-28T07:43:29.971Z,44.13
2018-11-28T07:45:58.448Z,45.90
2018-11-28T07:48:26.818Z,44.47
2018-11-28T07:50:55.203Z,46.03
2018-11-28T07:53:23.599Z,41.03
2018-11-28T07:55:51.754Z,40.23
2018-11-28T07:58:19.887Z,41.63
2018-11-28T08:00:48.031Z,39.27
2018-11-28T08:03:16.419Z,40.67
2018-11-28T08:05:44.811Z,38.77
2018-11-28T08:08:13.328Z,38.80
2018-11-28T08:10:41.726Z,36.43
2018-11-28T08:13:11.131Z,36.17
2018-11-28T08:15:39.552Z,35.80
2018-11-28T08:18:08.148Z,36.77
2018-11-28T08:20:36.556Z,38.03
2018-11-28T08:23:05.013Z,36.53
2018-11-28T08:25:33.568Z,38.77
2018-11-28T08:28:02.055Z,34.43
2018-11-28T08:30:30.491Z,37.23
2018-11-28T08:32:58.867Z,34.77
2018-11-28T08:35:27.311Z,34.13
2018-11-28T08:37:55.747Z,33.00
2018-11-28T08:40:25.326Z,33.87
2018-11-28T08:42:55.682Z,32.60
2018-11-28T08:45:24.075Z,35.97
2018-11-28T08:47:53.752Z,34.87
2018-11-28T08:50:25.662Z,32.50
2018-11-28T08:52:53.857Z,33.97
2018-11-28T08:55:22.289Z,35.07
2018-11-28T08:57:51.530Z,35.17
2018-11-28T09:00:23.584Z,33.83
2018-11-28T09:02:54.045Z,33.53
2018-11-28T09:05:22.462Z,38.60
2018-11-28T09:07:51.007Z,36.10
2018-11-28T09:10:20.124Z,33.87
2018-11-28T09:12:49.660Z,46.23
2018-11-28T09:15:21.147Z,39.90
2018-11-28T09:17:49.529Z,36.80
2018-11-28T09:20:17.999Z,37.00
2018-11-28T09:22:46.407Z,36.30
2018-11-28T09:25:15.790Z,37.13
2018-11-28T09:27:45.273Z,40.07
2018-11-28T09:30:17.686Z,37.50
2018-11-28T09:32:46.764Z,40.80
2018-11-28T09:35:15.563Z,41.03
2018-11-28T09:37:45.797Z,46.03
2018-11-28T09:40:14.675Z,41.17
2018-11-28T09:42:43.069Z,38.57
2018-11-28T09:45:12.801Z,40.50
2018-11-28T09:47:41.253Z,40.00
2018-11-28T09:50:11.758Z,46.00
2018-11-28T09:52:40.202Z,41.50
2018-11-28T09:55:13.318Z,40.97
2018-11-28T09:57:41.729Z,39.93
2018-11-28T10:00:14.536Z,38.63
2018-11-28T10:02:42.968Z,40.87
2018-11-28T10:05:13.741Z,43.43
2018-11-28T10:07:42.178Z,40.13
2018-11-28T10:10:11.919Z,40.87
2018-11-28T10:12:40.331Z,43.60
2018-11-28T10:15:11.985Z,44.03
2018-11-28T10:17:40.411Z,41.17
2018-11-28T10:20:10.327Z,44.13
2018-11-28T10:22:39.012Z,41.27
2018-11-28T10:25:10.035Z,39.67
2018-11-28T10:27:38.419Z,38.60
2018-11-28T10:30:39.130Z,38.00
2018-11-28T10:33:12.279Z,46.07
2018-11-28T10:35:41.305Z,40.03
2018-11-28T10:38:09.882Z,41.20
2018-11-28T10:40:38.414Z,47.23
2018-11-28T10:43:08.651Z,35.43
2018-11-28T10:45:37.241Z,35.83
2018-11-28T10:48:06.664Z,38.60
2018-11-28T10:50:35.067Z,38.07
2018-11-28T10:53:03.500Z,41.80
2018-11-28T10:55:31.911Z,37.57
2018-11-28T10:58:00.339Z,36.17
2018-11-28T11:00:35.876Z,35.10
2018-11-28T11:03:10.913Z,33.03
2018-11-28T11:05:45.384Z,36.60
2018-11-28T11:08:19.255Z,37.37
2018-11-28T11:10:53.099Z,34.80
2018-11-28T11:13:26.897Z,36.43
2018-11-28T11:15:55.865Z,38.20
2018-11-28T11:18:24.658Z,36.20
2018-11-28T11:20:53.107Z,33.00
2018-11-28T11:23:21.525Z,37.17
2018-11-28T11:25:50.132Z,36.60
2018-11-28T11:28:19.764Z,34.97
2018-11-28T11:30:48.237Z,39.90
2018-11-28T11:33:16.709Z,39.87
2018-11-28T11:35:45.165Z,39.03
2018-11-28T11:38:13.574Z,39.27
2018-11-28T11:40:41.999Z,36.67
2018-11-28T11:43:10.672Z,37.77
2018-11-28T11:45:39.673Z,41.33
2018-11-28T11:48:07.572Z,40.27
2018-11-28T11:50:36.112Z,44.03
2018-11-28T11:53:04.948Z,45.40
2018-11-28T11:55:33.942Z,44.07
2018-11-28T11:58:01.773Z,41.27
2018-11-28T12:00:30.198Z,42.53
2018-11-28T12:03:07.318Z,39.43
2018-11-28T12:05:35.840Z,39.73
2018-11-28T12:08:04.315Z,41.97
2018-11-28T12:10:32.705Z,41.20
2018-11-28T12:13:01.160Z,44.00
2018-11-28T12:15:30.067Z,42.33
2018-11-28T12:17:59.195Z,43.03
2018-11-28T12:20:37.186Z,39.47
2018-11-28T12:23:05.959Z,38.00
2018-11-28T12:25:34.537Z,37.80
2018-11-28T12:28:02.966Z,36.07
2018-11-28T12:30:31.375Z,37.53
2018-11-28T12:32:59.805Z,38.57
2018-11-28T12:35:28.208Z,39.93
2018-11-28T12:37:57.274Z,38.13
2018-11-28T12:41:48.828Z,36.40
2018-11-28T12:44:17.318Z,36.43
2018-11-28T12:46:45.740Z,39.20
2018-11-28T12:49:14.139Z,54.13
2018-11-28T12:51:42.613Z,35.50
2018-11-28T12:54:11.731Z,35.53
2018-11-28T12:56:40.140Z,36.07
2018-11-28T12:59:08.576Z,33.47
2018-11-28T13:01:37.052Z,33.17
2018-11-28T13:04:06.238Z,67.47
2018-11-28T13:06:34.627Z,36.63
2018-11-28T13:09:03.043Z,40.67
2018-11-28T13:11:31.460Z,32.03
2018-11-28T13:13:59.832Z,40.27
2018-11-28T13:16:28.338Z,46.50
2018-11-28T13:18:56.803Z,39.50
2018-11-28T13:21:25.315Z,33.90
2018-11-28T13:23:53.706Z,33.90
2018-11-28T13:26:22.122Z,32.37
2018-11-28T13:28:50.556Z,33.07
2018-11-28T13:31:18.994Z,31.90
2018-11-28T13:33:47.433Z,32.90
2018-11-28T13:36:15.847Z,36.60
2018-11-28T13:38:44.260Z,31.40
2018-11-28T13:41:12.667Z,31.67
2018-11-28T13:43:41.116Z,33.87
2018-11-28T13:46:09.566Z,33.63
2018-11-28T13:48:37.990Z,37.83
2018-11-28T13:51:06.418Z,32.07
2018-11-28T13:53:34.844Z,32.47
2018-11-28T13:58:31.684Z,32.17
2018-11-28T14:01:00.107Z,33.27
2018-11-28T14:03:28.514Z,34.37
2018-11-28T14:05:57.023Z,33.57
2018-11-28T14:08:25.427Z,32.03
2018-11-28T14:10:53.984Z,32.43
2018-11-28T14:13:22.405Z,33.43
2018-11-28T14:15:50.828Z,33.77
2018-11-28T14:18:20.731Z,31.17
2018-11-28T14:20:49.187Z,34.23
2018-11-28T14:23:18.011Z,32.20
2018-11-28T14:25:46.403Z,31.80
2018-11-28T14:28:14.878Z,34.83
2018-11-28T14:30:44.500Z,30.87
2018-11-28T14:33:12.921Z,36.03
2018-11-28T14:35:41.371Z,35.37
2018-11-28T14:38:09.845Z,34.90
2018-11-28T14:40:38.274Z,30.07
2018-11-28T14:43:07.983Z,34.43
2018-11-28T14:45:36.907Z,34.23
2018-11-28T14:48:05.376Z,38.80
2018-11-28T14:50:33.787Z,37.73
2018-11-28T14:53:03.077Z,38.27
2018-11-28T14:55:35.590Z,39.83
2018-11-28T14:58:04.828Z,36.70
2018-11-28T15:00:33.563Z,39.30
2018-11-28T15:03:19.147Z,38.30
2018-11-28T15:05:54.989Z,40.30
2018-11-28T15:08:23.767Z,41.40
2018-11-28T15:11:05.007Z,45.17
2018-11-28T15:13:33.503Z,42.57
2018-11-28T15:16:02.159Z,43.60
2018-11-28T15:18:30.567Z,41.73
2018-11-28T15:20:59.030Z,42.13
2018-11-28T15:23:27.427Z,41.47
2018-11-28T15:25:55.903Z,42.17
2018-11-28T15:28:24.289Z,38.27
2018-11-28T15:30:52.835Z,42.77
2018-11-28T15:33:21.303Z,41.47
2018-11-28T15:35:49.705Z,44.77
2018-11-28T15:38:18.118Z,45.73
2018-11-28T15:40:46.504Z,43.97
2018-11-28T15:43:14.907Z,42.57
2018-11-28T15:45:43.304Z,41.47
2018-11-28T15:48:12.039Z,43.23
2018-11-28T15:50:40.527Z,43.33
2018-11-28T15:53:09.028Z,46.63
2018-11-28T15:55:37.642Z,40.60
2018-11-28T15:58:06.214Z,43.70
2018-11-28T16:00:34.674Z,40.77
2018-11-28T16:03:03.116Z,41.33
2018-11-28T16:05:31.636Z,44.37
2018-11-28T16:08:00.154Z,41.37
2018-11-28T16:10:33.782Z,41.90
2018-11-28T16:13:02.216Z,43.17
2018-11-28T16:15:32.700Z,42.87
2018-11-28T16:18:01.130Z,42.40
2018-11-28T16:20:29.687Z,41.23
2018-11-28T16:23:04.219Z,43.37
2018-11-28T16:25:26.593Z,40.03
2018-11-28T16:27:55.002Z,42.60
2018-11-28T16:30:23.471Z,40.47
2018-11-28T16:32:51.906Z,41.43
2018-11-28T16:35:20.306Z,41.50
2018-11-28T16:37:48.803Z,40.70
2018-11-28T16:40:17.229Z,42.87
2018-11-28T16:42:45.643Z,42.67
2018-11-28T16:45:18.368Z,39.27
2018-11-28T16:47:47.359Z,40.10
2018-11-28T16:50:16.727Z,39.73
2018-11-28T16:52:45.971Z,41.30
2018-11-28T16:55:15.522Z,37.77
2018-11-28T16:57:49.242Z,43.13
2018-11-28T17:00:22.064Z,38.77
2018-11-28T17:02:51.046Z,38.67
2018-11-28T17:05:20.607Z,37.57
2018-11-28T17:07:50.082Z,42.27
2018-11-28T17:10:23.901Z,40.00
2018-11-28T17:12:52.899Z,35.97
2018-11-28T17:15:21.454Z,37.93
2018-11-28T17:17:49.951Z,38.17
2018-11-28T17:20:20.576Z,41.70
2018-11-28T17:22:50.185Z,41.23
2018-11-28T17:25:20.970Z,39.90
2018-11-28T17:27:49.434Z,37.23
2018-11-28T17:30:19.434Z,39.83
2018-11-28T17:32:47.908Z,38.97
2018-11-28T17:35:16.891Z,36.57
2018-11-28T17:37:45.327Z,37.67
2018-11-28T17:40:16.660Z,36.67
2018-11-28T17:42:47.448Z,37.43
2018-11-28T17:45:16.949Z,39.07
2018-11-28T17:47:45.425Z,36.90
2018-11-28T17:50:15.938Z,38.13
2018-11-28T17:52:49.428Z,37.70
2018-11-28T17:55:18.259Z,35.93
2018-11-28T17:57:46.662Z,38.53
2018-11-28T18:00:16.169Z,38.57
2018-11-28T18:02:44.628Z,36.40
2018-11-28T18:05:13.044Z,37.57
2018-11-28T18:07:41.459Z,41.33
2018-11-28T18:10:16.300Z,37.93
2018-11-28T18:12:55.986Z,36.87
2018-11-28T18:15:24.471Z,35.10
2018-11-28T18:17:54.946Z,36.10
2018-11-28T18:20:23.871Z,35.27
2018-11-28T18:22:52.403Z,38.40
2018-11-28T18:25:21.271Z,37.50
2018-11-28T18:27:49.973Z,32.37
2018-11-28T18:30:19.160Z,37.27
2018-11-28T18:32:47.667Z,36.93
2018-11-28T18:35:16.148Z,37.73
2018-11-28T18:37:44.576Z,38.30
2018-11-28T18:40:13.462Z,38.10
2018-11-28T18:42:42.632Z,39.57
2018-11-28T18:45:16.652Z,35.90
2018-11-28T18:47:45.105Z,37.97
2018-11-28T18:50:14.170Z,35.27
2018-11-28T18:52:42.612Z,34.77
2018-11-28T18:55:16.574Z,34.70
2018-11-28T18:57:42.439Z,37.83
2018-11-28T19:00:13.547Z,34.93
2018-11-28T19:02:42.735Z,36.93
2018-11-28T19:05:10.619Z,35.27
2018-11-28T19:07:39.119Z,37.93
2018-11-28T19:10:09.775Z,36.63
2018-11-28T19:12:38.339Z,32.63
2018-11-28T19:15:09.466Z,33.77
2018-11-28T19:17:37.867Z,34.33
2018-11-28T19:20:09.172Z,34.37
2018-11-28T19:22:37.611Z,58.30
2018-11-28T19:25:08.445Z,36.90
2018-11-28T19:27:36.950Z,32.33
2018-11-28T19:30:39.343Z,31.90
2018-11-28T19:33:09.276Z,29.83
2018-11-28T19:35:37.783Z,30.87
2018-11-28T19:38:08.322Z,29.17
2018-11-28T19:40:45.788Z,31.90
2018-11-28T19:43:14.190Z,32.23
2018-11-28T19:45:42.714Z,35.60
2018-11-28T19:48:11.184Z,30.03
2018-11-28T19:50:39.762Z,30.80
2018-11-28T19:53:09.142Z,30.00
2018-11-28T19:55:37.644Z,30.03
2018-11-28T19:58:06.808Z,30.93
2018-11-28T20:00:35.498Z,31.97
2018-11-28T20:03:04.263Z,30.70
2018-11-28T20:05:32.740Z,30.00
2018-11-28T20:08:01.179Z,29.93
2018-11-28T20:10:29.816Z,29.40
2018-11-28T20:12:58.252Z,32.73
2018-11-28T20:15:29.821Z,31.33
2018-11-28T20:17:58.472Z,31.47
2018-11-28T20:20:26.973Z,31.37
2018-11-28T20:22:55.397Z,29.47
2018-11-28T20:25:25.652Z,30.50
2018-11-28T20:27:55.671Z,28.90
2018-11-28T20:30:29.840Z,30.23
2018-11-28T20:32:58.400Z,30.83
2018-11-28T20:35:26.829Z,31.23
2018-11-28T20:37:55.319Z,31.97
2018-11-28T20:40:24.025Z,31.23
2018-11-28T20:42:53.652Z,32.97
2018-11-28T20:45:22.143Z,31.73
2018-11-28T20:47:50.622Z,31.10
2018-11-28T20:50:23.329Z,32.20
2018-11-28T20:52:55.059Z,30.00
2018-11-28T20:55:22.780Z,30.83
2018-11-28T20:57:51.237Z,34.20
2018-11-28T21:00:22.256Z,34.17
2018-11-28T21:02:50.680Z,32.30
2018-11-28T21:05:19.749Z,32.40
2018-11-28T21:07:48.176Z,32.27
2018-11-28T21:10:22.226Z,31.60
2018-11-28T21:12:50.642Z,31.67
2018-11-28T21:15:19.101Z,31.53
2018-11-28T21:17:48.058Z,31.97
2018-11-28T21:20:17.677Z,30.07
2018-11-28T21:22:48.699Z,33.47
2018-11-28T21:25:17.129Z,30.23
2018-11-28T21:27:46.154Z,31.07
2018-11-28T21:30:15.688Z,34.03
2018-11-28T21:32:44.547Z,32.63
2018-11-28T21:35:15.350Z,32.20
2018-11-28T21:37:44.074Z,31.40
2018-11-28T21:40:12.798Z,30.30
2018-11-28T21:42:41.240Z,29.20
2018-11-28T21:45:12.209Z,31.43
2018-11-28T21:47:40.660Z,33.33
2018-11-28T21:50:12.365Z,30.37
2018-11-28T21:52:40.806Z,30.10
2018-11-28T21:55:11.296Z,33.97
2018-11-28T21:57:39.765Z,30.47
2018-11-28T22:00:13.987Z,35.10
2018-11-28T22:02:43.010Z,33.90
2018-11-28T22:05:12.564Z,34.80
2018-11-28T22:07:42.530Z,30.70
2018-11-28T22:10:12.903Z,30.73
2018-11-28T22:12:41.346Z,29.07
2018-11-28T22:15:15.580Z,27.90
2018-11-28T22:17:48.394Z,27.50
2018-11-28T22:20:16.865Z,35.10
2018-11-28T22:22:45.249Z,32.03
2018-11-28T22:25:16.601Z,30.83
2018-11-28T22:27:45.002Z,33.03
2018-11-28T22:30:14.783Z,31.33
2018-11-28T22:32:43.436Z,32.53
2018-11-28T22:35:12.042Z,31.20
2018-11-28T22:37:40.498Z,43.20
2018-11-28T22:40:12.495Z,33.57
2018-11-28T22:42:40.899Z,32.40
2018-11-28T22:45:16.698Z,30.83
2018-11-28T22:47:45.126Z,32.73
2018-11-28T22:50:13.974Z,35.27
2018-11-28T22:52:42.442Z,31.43
2018-11-28T22:55:12.955Z,29.47
2018-11-28T22:57:41.389Z,33.50
2018-11-28T23:00:13.494Z,30.27
2018-11-28T23:02:49.319Z,34.27
2018-11-28T23:05:17.975Z,33.13
2018-11-28T23:07:46.408Z,34.97
2018-11-28T23:10:15.062Z,33.37
2018-11-28T23:12:43.466Z,33.03
2018-11-28T23:15:11.875Z,36.07
2018-11-28T23:17:40.270Z,33.83
2018-11-28T23:20:09.735Z,31.33
2018-11-28T23:22:38.152Z,30.73
2018-11-28T23:25:09.376Z,32.67
2018-11-28T23:27:37.843Z,29.23
2018-11-28T23:30:18.494Z,34.47
2018-11-28T23:32:47.647Z,29.70
2018-11-28T23:35:16.158Z,30.23
2018-11-28T23:37:45.651Z,30.40
2018-11-28T23:40:16.718Z,30.83
2018-11-28T23:42:45.184Z,32.93
2018-11-28T23:45:14.257Z,30.47
2018-11-28T23:47:42.683Z,28.50
2018-11-28T23:50:16.609Z,30.00
2018-11-28T23:52:45.150Z,28.60
2018-11-28T23:55:23.270Z,26.97
2018-11-28T23:57:52.203Z,33.17
